Main page
METAR-TAF:

METAR-TAF

Airports :

Munich Airport

Munich, Germany

latitude: 48-21N, longitude: 011-47E, elevation: 453 m

Current weather observation

The report was made 48 minutes ago, at 09:50 UTC
Wind 6 kt from the East/Northeast, varying between North and Southeast
Temperature 5°C
Humidity 48%
Pressure 1021 hPa
Visibility 10 km or more
Few clouds at a height of 3600 ft

METAR: EDDM 010950Z 07006KT 360V130 9999 FEW036 05/M05 Q1021 NOSIG

Time: 12:38 (10:38 UTC)

Forecast

The report was made 5 hours and 38 minutes ago, at 05:00 UTC
Forecast valid from 01 at 06 UTC to 02 at 12 UTC
Wind 3 kt from variable directions
Visibility 10 km or more
no clouds below 1500 m and no cumulonimbus
Becoming
from 01 at 06 UTC to 01 at 08 UTC
Wind 7 kt from the East
Becoming
from 01 at 17 UTC to 01 at 19 UTC
Wind 3 kt from variable directions

TAF: EDDM 010500Z 0106/0212 VRB03KT CAVOK BECMG 0106/0108 08007KT BECMG 0117/0119 VRB03KT

Weather observations and forecasts of more than 4000 airports (METAR and TAF reports).

The available stations are represented by yellow and red dots on the map.

Hover mouse over dot to see the name of the station.

Then click to see weather observations and forecasts.

To change the map : click on the green buttons with a black cross to zoom in, on the green button with a dash to zoom out, or on the green arrows for adjacent maps.


METAR-TAF: